Time;durP1;ratioP1;P1;durP2;ratioP2;P2;SDS_P1;SDS_P2;PMS_P1;PMS_P2;Temp;Humidity;BMP_temperature;BMP_pressure;BME280_temperature;BME280_humidity;BME280_pressure;Samples;Min_cycle;Max_cycle;Signal;HPM_P1;HPM_P2
2023/05/22 00:04:05;;;;;;;;;;;;;;;15.03;59.6582;101696.2;;;;-69
2023/05/22 00:06:53;;;;;;;0.3;0.2;;;;;;;;;;;;;-69
2023/05/22 00:09:08;;;;;;;;;;;;;;;15.01;59.94824;101698.4;;;;-69
2023/05/22 00:14:05;;;;;;;;;;;;;;;14.94;59.6123;101714.3;;;;-68
2023/05/22 00:19:05;;;;;;;;;;;;;;;14.91;59.94629;101712.7;;;;-69
2023/05/22 00:24:05;;;;;;;;;;;;;;;14.87;59.87402;101710.1;;;;-69
2023/05/22 00:29:05;;;;;;;;;;;;;;;14.83;60.16992;101720;;;;-70
2023/05/22 00:34:05;;;;;;;;;;;;;;;14.83;60.00195;101690.7;;;;-69
2023/05/22 00:36:55;;;;;;;0.2;0.1;;;;;;;;;;;;;-69
2023/05/22 00:39:05;;;;;;;;;;;;;;;14.83;60.29492;101681.2;;;;-70
2023/05/22 00:44:06;;;;;;;;;;;;;;;14.81;60.25879;101683.1;;;;-69
2023/05/22 00:49:05;;;;;;;;;;;;;;;14.78;60.19727;101694.5;;;;-69
2023/05/22 00:54:05;;;;;;;;;;;;;;;14.79;60.43555;101671.7;;;;-69
2023/05/22 00:59:05;;;;;;;;;;;;;;;14.81;60.25879;101674.6;;;;-69
2023/05/22 01:04:08;;;;;;;;;;;;;;;14.82;60.18066;101681.9;;;;-69
2023/05/22 01:06:57;;;;;;;0.2;0.1;;;;;;;;;;;;;-69
2023/05/22 01:09:05;;;;;;;;;;;;;;;14.84;60.05957;101670.2;;;;-69
2023/05/22 01:14:09;;;;;;;;;;;;;;;14.86;59.86133;101661.7;;;;-68
2023/05/22 01:19:15;;;;;;;;;;;;;;;14.85;60.00391;101661.7;;;;-70
2023/05/22 01:24:24;;;;;;;;;;;;;;;14.87;60.36816;101659.7;;;;-70
2023/05/22 01:29:14;;;;;;;;;;;;;;;14.85;60.29688;101654.2;;;;-69
2023/05/22 01:34:06;;;;;;;;;;;;;;;14.82;60.22461;101644.7;;;;-69
2023/05/22 01:37:00;;;;;;;0.2;0.1;;;;;;;;;;;;;-69
2023/05/22 01:39:05;;;;;;;;;;;;;;;14.75;60.55176;101638;;;;-69
2023/05/22 01:44:05;;;;;;;;;;;;;;;14.72;60.44824;101623.3;;;;-69
2023/05/22 01:49:05;;;;;;;;;;;;;;;14.66;61.22754;101604.9;;;;-70
2023/05/22 01:54:10;;;;;;;;;;;;;;;14.64;60.79688;101588.8;;;;-70
2023/05/22 01:59:13;;;;;;;;;;;;;;;14.63;60.81738;101586.8;;;;-68
2023/05/22 02:04:07;;;;;;;;;;;;;;;14.56;61.15527;101575.5;;;;-69
2023/05/22 02:07:02;;;;;;;0.2;0.1;;;;;;;;;;;;;-68
2023/05/22 02:09:06;;;;;;;;;;;;;;;14.52;61.55469;101570.1;;;;-68
2023/05/22 02:14:07;;;;;;;;;;;;;;;14.47;61.44629;101572.8;;;;-70
2023/05/22 02:19:06;;;;;;;;;;;;;;;14.43;61.63379;101568.3;;;;-69
2023/05/22 02:24:05;;;;;;;;;;;;;;;14.42;61.30469;101570.5;;;;-68
2023/05/22 02:29:05;;;;;;;;;;;;;;;14.36;61.49805;101558.9;;;;-69
2023/05/22 02:34:05;;;;;;;;;;;;;;;14.32;61.24609;101554.9;;;;-68
2023/05/22 02:37:04;;;;;;;0.2;0.1;;;;;;;;;;;;;-69
2023/05/22 02:39:07;;;;;;;;;;;;;;;14.3;61.24219;101548.7;;;;-70
2023/05/22 02:44:05;;;;;;;;;;;;;;;14.28;61.49902;101542.6;;;;-69
2023/05/22 02:49:05;;;;;;;;;;;;;;;14.27;61.03711;101540.7;;;;-69
2023/05/22 02:54:05;;;;;;;;;;;;;;;14.2;61.41895;101535;;;;-69
2023/05/22 02:59:05;;;;;;;;;;;;;;;14.18;61.54199;101537.5;;;;-70
2023/05/22 03:04:05;;;;;;;;;;;;;;;14.16;61.68359;101542.6;;;;-69
2023/05/22 03:07:06;;;;;;;0.2;0;;;;;;;;;;;;;-69
2023/05/22 03:09:07;;;;;;;;;;;;;;;14.08;62.03223;101536.3;;;;-68
2023/05/22 03:14:05;;;;;;;;;;;;;;;14.06;62.16309;101548.8;;;;-69
2023/05/22 03:19:14;;;;;;;;;;;;;;;14.04;61.9248;101581.5;;;;-69
2023/05/22 03:24:05;;;;;;;;;;;;;;;14.01;62.32422;101560.2;;;;-70
2023/05/22 03:29:05;;;;;;;;;;;;;;;13.97;62.22852;101563.6;;;;-70
2023/05/22 03:34:06;;;;;;;;;;;;;;;13.91;62.2998;101561.5;;;;-69
2023/05/22 03:37:07;;;;;;;0.2;0.1;;;;;;;;;;;;;-69
2023/05/22 03:39:05;;;;;;;;;;;;;;;13.88;62.38477;101579;;;;-69
2023/05/22 03:44:05;;;;;;;;;;;;;;;13.83;62.39941;101562.8;;;;-69
2023/05/22 03:49:07;;;;;;;;;;;;;;;13.8;62.05859;101568.2;;;;-69
2023/05/22 03:54:05;;;;;;;;;;;;;;;13.76;61.73926;101566.2;;;;-70
2023/05/22 03:59:05;;;;;;;;;;;;;;;13.73;62.10547;101556.8;;;;-70
2023/05/22 04:04:06;;;;;;;;;;;;;;;13.71;61.88965;101561.6;;;;-70
2023/05/22 04:07:12;;;;;;;2.8;1.2;;;;;;;;;;;;;-67
2023/05/22 04:09:05;;;;;;;;;;;;;;;13.69;61.76465;101555.8;;;;-69
2023/05/22 04:14:05;;;;;;;;;;;;;;;13.71;61.55371;101569.2;;;;-69
2023/05/22 04:19:05;;;;;;;;;;;;;;;13.69;61.65039;101572.7;;;;-69
2023/05/22 04:24:06;;;;;;;;;;;;;;;13.72;61.66699;101582.3;;;;-67
2023/05/22 04:29:09;;;;;;;;;;;;;;;13.72;61.48828;101588.6;;;;-70
2023/05/22 04:34:05;;;;;;;;;;;;;;;13.75;61.62598;101599.4;;;;-69
2023/05/22 04:37:13;;;;;;;0.2;0.1;;;;;;;;;;;;;-69
2023/05/22 04:39:05;;;;;;;;;;;;;;;13.79;61.2959;101602;;;;-68
2023/05/22 04:44:06;;;;;;;;;;;;;;;13.85;61.12402;101597.4;;;;-68
2023/05/22 04:49:05;;;;;;;;;;;;;;;13.88;61.09473;101595.1;;;;-69
2023/05/22 04:54:05;;;;;;;;;;;;;;;13.91;61.17773;101594.1;;;;-72
2023/05/22 04:59:07;;;;;;;;;;;;;;;13.97;61.0957;101598.2;;;;-70
2023/05/22 05:04:05;;;;;;;;;;;;;;;14.02;60.75586;101592.9;;;;-69
2023/05/22 05:07:17;;;;;;;0.2;0.1;;;;;;;;;;;;;-69
2023/05/22 05:09:05;;;;;;;;;;;;;;;14.11;60.49902;101592.9;;;;-68
2023/05/22 05:14:05;;;;;;;;;;;;;;;14.22;60.35742;101597.8;;;;-70
2023/05/22 05:19:05;;;;;;;;;;;;;;;14.29;60.31055;101599;;;;-69
2023/05/22 05:24:05;;;;;;;;;;;;;;;14.41;60.4502;101601.1;;;;-69
2023/05/22 05:29:05;;;;;;;;;;;;;;;14.71;60.99707;101596.5;;;;-68
2023/05/22 05:34:05;;;;;;;;;;;;;;;15.22;59.66016;101602.8;;;;-70
2023/05/22 05:37:15;;;;;;;0.2;0.1;;;;;;;;;;;;;-68
2023/05/22 05:39:05;;;;;;;;;;;;;;;15.72;58.09473;101606.3;;;;-68
2023/05/22 05:44:05;;;;;;;;;;;;;;;16.36;57.42285;101603.4;;;;-69
2023/05/22 05:49:08;;;;;;;;;;;;;;;16.88;57.38867;101601.5;;;;-70
2023/05/22 05:54:05;;;;;;;;;;;;;;;17.39;57.36426;101604.7;;;;-71
2023/05/22 05:59:05;;;;;;;;;;;;;;;17.87;58.15137;101604.8;;;;-69
2023/05/22 06:04:07;;;;;;;;;;;;;;;18.31;58.16406;101606.8;;;;-70
2023/05/22 06:07:17;;;;;;;0.2;0.1;;;;;;;;;;;;;-70
2023/05/22 06:09:05;;;;;;;;;;;;;;;18.82;56.9375;101604.1;;;;-70
2023/05/22 06:14:06;;;;;;;;;;;;;;;19.18;58.27734;101600.9;;;;-70
2023/05/22 06:19:05;;;;;;;;;;;;;;;19.52;59.47168;101606.2;;;;-69
2023/05/22 06:24:05;;;;;;;;;;;;;;;19.99;58.33887;101600.6;;;;-69
2023/05/22 06:29:05;;;;;;;;;;;;;;;20.4;57.46973;101610.3;;;;-69
2023/05/22 06:34:05;;;;;;;;;;;;;;;20.68;57.91504;101604.6;;;;-69
2023/05/22 06:37:20;;;;;;;0.2;0.1;;;;;;;;;;;;;-70
2023/05/22 06:39:05;;;;;;;;;;;;;;;20.95;56.46777;101611.3;;;;-70
2023/05/22 06:44:05;;;;;;;;;;;;;;;21.27;57.5127;101625.8;;;;-68
2023/05/22 06:49:05;;;;;;;;;;;;;;;21.64;57.32031;101625.8;;;;-69
2023/05/22 06:54:06;;;;;;;;;;;;;;;21.81;57.70898;101627.4;;;;-68
2023/05/22 06:59:05;;;;;;;;;;;;;;;22.07;57.18262;101626.4;;;;-69
2023/05/22 07:04:07;;;;;;;;;;;;;;;22.29;57.0957;101631.3;;;;-68
2023/05/22 07:07:22;;;;;;;0.7;0.2;;;;;;;;;;;;;-68
2023/05/22 07:09:05;;;;;;;;;;;;;;;22.41;57.38574;101628.7;;;;-68
2023/05/22 07:14:06;;;;;;;;;;;;;;;22.68;57.12109;101631.6;;;;-69
2023/05/22 07:19:05;;;;;;;;;;;;;;;22.94;55.88281;101635;;;;-69
2023/05/22 07:24:07;;;;;;;;;;;;;;;23.17;55.14258;101639.6;;;;-69
2023/05/22 07:29:05;;;;;;;;;;;;;;;23.3;54.80273;101642.6;;;;-69
2023/05/22 07:34:05;;;;;;;;;;;;;;;23.46;54.29492;101644.1;;;;-69
2023/05/22 07:37:25;;;;;;;0.4;0.2;;;;;;;;;;;;;-68
2023/05/22 07:39:11;;;;;;;;;;;;;;;23.39;54.67578;101655.9;;;;-70
2023/05/22 07:44:05;;;;;;;;;;;;;;;23.52;55.11719;101652.2;;;;-70
2023/05/22 07:49:05;;;;;;;;;;;;;;;23.74;54.32715;101661.3;;;;-71
2023/05/22 07:54:06;;;;;;;;;;;;;;;23.97;53.95215;101662;;;;-70
2023/05/22 07:59:06;;;;;;;;;;;;;;;24.08;53.55273;101657.3;;;;-69
2023/05/22 08:04:05;;;;;;;;;;;;;;;24.14;53.53613;101660.5;;;;-70
2023/05/22 08:07:29;;;;;;;0.3;0.2;;;;;;;;;;;;;-69
2023/05/22 08:09:05;;;;;;;;;;;;;;;24.13;53.28223;101662;;;;-69
2023/05/22 08:14:05;;;;;;;;;;;;;;;23.91;53.52148;101673.1;;;;-70
2023/05/22 08:19:05;;;;;;;;;;;;;;;23.77;53.94141;101673.2;;;;-69
2023/05/22 08:24:05;;;;;;;;;;;;;;;23.89;54.1748;101669.1;;;;-71
2023/05/22 08:29:05;;;;;;;;;;;;;;;24.26;53.68945;101676.4;;;;-68
2023/05/22 08:34:06;;;;;;;;;;;;;;;24.59;53.25586;101672.9;;;;-69
2023/05/22 08:37:33;;;;;;;0.5;0.2;;;;;;;;;;;;;-69
2023/05/22 08:39:06;;;;;;;;;;;;;;;25.09;52.25488;101671;;;;-69
2023/05/22 08:44:05;;;;;;;;;;;;;;;25.24;52.08887;101673.8;;;;-69
2023/05/22 08:49:05;;;;;;;;;;;;;;;25.4;51.91016;101674.7;;;;-69
2023/05/22 08:54:07;;;;;;;;;;;;;;;25.56;51.65137;101675.7;;;;-69
2023/05/22 08:59:05;;;;;;;;;;;;;;;25.75;51.34961;101668.2;;;;-70
2023/05/22 09:04:06;;;;;;;;;;;;;;;25.9;51.11328;101666.4;;;;-68
2023/05/22 09:07:41;;;;;;;0.2;0.1;;;;;;;;;;;;;-69
2023/05/22 09:09:05;;;;;;;;;;;;;;;26.1;51.01953;101665.6;;;;-70
2023/05/22 09:14:14;;;;;;;;;;;;;;;26.31;50.66211;101666.3;;;;-69
2023/05/22 09:19:07;;;;;;;;;;;;;;;26.49;50.36914;101664.9;;;;-70
2023/05/22 09:24:06;;;;;;;;;;;;;;;26.77;49.85645;101658.7;;;;-69
2023/05/22 09:29:06;;;;;;;;;;;;;;;27.07;49.25195;101655.7;;;;-70
2023/05/22 09:34:06;;;;;;;;;;;;;;;27.27;48.85645;101654.5;;;;-69
2023/05/22 09:37:41;;;;;;;0.2;0.1;;;;;;;;;;;;;-69
2023/05/22 09:39:08;;;;;;;;;;;;;;;27.4;48.89355;101651.3;;;;-69
2023/05/22 09:44:09;;;;;;;;;;;;;;;27.57;48.69141;101655.2;;;;-69
2023/05/22 09:49:05;;;;;;;;;;;;;;;27.76;48.29395;101646.8;;;;-69
2023/05/22 09:54:09;;;;;;;;;;;;;;;27.97;47.95605;101648.3;;;;-68
2023/05/22 09:59:06;;;;;;;;;;;;;;;28.03;47.47363;101644.2;;;;-69
2023/05/22 10:04:07;;;;;;;;;;;;;;;28.14;47.36914;101638.4;;;;-67
2023/05/22 10:07:50;;;;;;;0.3;0.2;;;;;;;;;;;;;-66
2023/05/22 10:09:07;;;;;;;;;;;;;;;28.32;46.83008;101631.7;;;;-67
2023/05/22 10:14:06;;;;;;;;;;;;;;;28.48;46.75293;101628.5;;;;-69
2023/05/22 10:19:05;;;;;;;;;;;;;;;28.66;46.29395;101629.1;;;;-68
2023/05/22 10:24:06;;;;;;;;;;;;;;;28.63;46.46484;101628.6;;;;-68
2023/05/22 10:29:10;;;;;;;;;;;;;;;28.51;46.15137;101624.5;;;;-66
2023/05/22 10:34:13;;;;;;;;;;;;;;;28.33;46.48145;101623.1;;;;-66
2023/05/22 10:37:52;;;;;;;0.4;0.1;;;;;;;;;;;;;-67
2023/05/22 10:39:14;;;;;;;;;;;;;;;28.36;47.32227;101619.5;;;;-67
2023/05/22 10:44:05;;;;;;;;;;;;;;;28.73;46.83594;101623.7;;;;-66
2023/05/22 10:49:05;;;;;;;;;;;;;;;29.14;46.35449;101611.8;;;;-67
2023/05/22 10:54:05;;;;;;;;;;;;;;;29.51;45.9375;101618;;;;-67
2023/05/22 10:59:06;;;;;;;;;;;;;;;29.88;46.11523;101619;;;;-68
2023/05/22 11:04:14;;;;;;;;;;;;;;;30.18;46.78906;101616.3;;;;-66
2023/05/22 11:07:55;;;;;;;0.2;0;;;;;;;;;;;;;-66
2023/05/22 11:09:15;;;;;;;;;;;;;;;30.39;46.79785;101621;;;;-67
2023/05/22 11:14:08;;;;;;;;;;;;;;;30.73;45.01953;101622.6;;;;-68
2023/05/22 11:19:10;;;;;;;;;;;;;;;30.87;46.15723;101623.2;;;;-69
2023/05/22 11:24:07;;;;;;;;;;;;;;;31.21;46.69531;101617.1;;;;-68
2023/05/22 11:29:05;;;;;;;;;;;;;;;31.52;45.13184;101619.6;;;;-66
2023/05/22 11:34:05;;;;;;;;;;;;;;;31.55;45.24121;101616;;;;-66
2023/05/22 11:38:00;;;;;;;0.2;0.1;;;;;;;;;;;;;-66
2023/05/22 11:39:05;;;;;;;;;;;;;;;31.65;44.55957;101618.5;;;;-67
2023/05/22 11:44:05;;;;;;;;;;;;;;;31.84;45.84375;101621.5;;;;-70
2023/05/22 11:49:05;;;;;;;;;;;;;;;32.1;44.49707;101620.4;;;;-68
2023/05/22 11:54:05;;;;;;;;;;;;;;;32.33;44.37891;101612.7;;;;-68
2023/05/22 11:59:05;;;;;;;;;;;;;;;32.61;44.2998;101610.1;;;;-67
2023/05/22 12:04:05;;;;;;;;;;;;;;;32.69;43.32031;101616.5;;;;-66
2023/05/22 12:08:05;;;;;;;0.2;0;;;;;;;;;;;;;-67
2023/05/22 12:09:06;;;;;;;;;;;;;;;32.27;43.80957;101616.2;;;;-68
2023/05/22 12:14:08;;;;;;;;;;;;;;;32.28;43.86914;101617.7;;;;-67
2023/05/22 12:19:07;;;;;;;;;;;;;;;32.63;43.46777;101617.3;;;;-67
2023/05/22 12:24:05;;;;;;;;;;;;;;;32.48;43.12402;101617.6;;;;-67
2023/05/22 12:29:06;;;;;;;;;;;;;;;32.3;43.36523;101622.2;;;;-67
2023/05/22 12:34:06;;;;;;;;;;;;;;;32.51;43.46777;101627.2;;;;-67
2023/05/22 12:38:14;;;;;;;0.5;0.2;;;;;;;;;;;;;-69
2023/05/22 12:39:09;;;;;;;;;;;;;;;32.56;42.93262;101625.3;;;;-67
2023/05/22 12:44:05;;;;;;;;;;;;;;;32.85;41.94727;101628.3;;;;-68
2023/05/22 12:49:05;;;;;;;;;;;;;;;32.9;41.61035;101622.9;;;;-67
2023/05/22 12:54:09;;;;;;;;;;;;;;;32.87;41.25488;101619.2;;;;-72
2023/05/22 12:59:05;;;;;;;;;;;;;;;33.13;42.18457;101625.5;;;;-68
2023/05/22 13:04:08;;;;;;;;;;;;;;;33.22;41.71094;101624.3;;;;-67
2023/05/22 13:08:17;;;;;;;0.2;0;;;;;;;;;;;;;-65
2023/05/22 13:09:05;;;;;;;;;;;;;;;33.25;41.0293;101628.1;;;;-66
2023/05/22 13:14:05;;;;;;;;;;;;;;;33.36;42.32422;101637.5;;;;-67
2023/05/22 13:19:05;;;;;;;;;;;;;;;33.35;42.20605;101640.7;;;;-67
2023/05/22 13:24:08;;;;;;;;;;;;;;;33.33;41.71973;101642;;;;-67
2023/05/22 13:29:05;;;;;;;;;;;;;;;33.34;40.80273;101654.4;;;;-68
2023/05/22 13:34:05;;;;;;;;;;;;;;;33.21;42.04004;101643;;;;-67
2023/05/22 13:38:24;;;;;;;0.3;0.1;;;;;;;;;;;;;-67
2023/05/22 13:39:05;;;;;;;;;;;;;;;33.22;42.41797;101645.8;;;;-67
2023/05/22 13:44:08;;;;;;;;;;;;;;;33.23;42.12305;101649.5;;;;-67
2023/05/22 13:49:05;;;;;;;;;;;;;;;33.12;42.07813;101652.5;;;;-67
2023/05/22 13:54:05;;;;;;;;;;;;;;;33.05;41.74219;101660.3;;;;-66
2023/05/22 13:59:05;;;;;;;;;;;;;;;33.13;42.03223;101658.5;;;;-67
2023/05/22 14:04:05;;;;;;;;;;;;;;;33.23;41.93457;101656.4;;;;-68
2023/05/22 14:08:30;;;;;;;0.3;0.1;;;;;;;;;;;;;-68
2023/05/22 14:09:06;;;;;;;;;;;;;;;33.1;41.87598;101656.7;;;;-68
2023/05/22 14:14:05;;;;;;;;;;;;;;;32.66;42.20117;101652.1;;;;-67
2023/05/22 14:19:05;;;;;;;;;;;;;;;32.33;42.13477;101651.8;;;;-67
2023/05/22 14:24:05;;;;;;;;;;;;;;;32.12;42.80859;101655;;;;-67
2023/05/22 14:29:05;;;;;;;;;;;;;;;32.23;41.12695;101657.3;;;;-68
2023/05/22 14:34:05;;;;;;;;;;;;;;;32.02;42.3418;101663.9;;;;-67
2023/05/22 14:38:36;;;;;;;0.2;0;;;;;;;;;;;;;-69
2023/05/22 14:39:05;;;;;;;;;;;;;;;31.76;42.83398;101660.9;;;;-67
2023/05/22 14:44:05;;;;;;;;;;;;;;;31.71;42.32422;101669.6;;;;-67
2023/05/22 14:49:05;;;;;;;;;;;;;;;31.49;42.95996;101668.4;;;;-67
2023/05/22 14:54:05;;;;;;;;;;;;;;;31.37;42.15137;101670.1;;;;-68
2023/05/22 14:59:05;;;;;;;;;;;;;;;31.32;41.6084;101674.6;;;;-69
2023/05/22 15:04:06;;;;;;;;;;;;;;;31.26;41.59082;101676.9;;;;-68
2023/05/22 15:08:42;;;;;;;0.2;0;;;;;;;;;;;;;-69
2023/05/22 15:09:05;;;;;;;;;;;;;;;31.25;41.94238;101674.2;;;;-69
2023/05/22 15:14:05;;;;;;;;;;;;;;;31.15;41.50977;101684;;;;-69
2023/05/22 15:19:06;;;;;;;;;;;;;;;31.04;41.45215;101684.1;;;;-68
2023/05/22 15:24:06;;;;;;;;;;;;;;;30.87;41.20215;101690.8;;;;-68
2023/05/22 15:29:05;;;;;;;;;;;;;;;30.74;40.82813;101691.3;;;;-68
2023/05/22 15:34:05;;;;;;;;;;;;;;;30.59;41.17773;101695.4;;;;-70
2023/05/22 15:38:48;;;;;;;0.2;0.1;;;;;;;;;;;;;-68
2023/05/22 15:39:05;;;;;;;;;;;;;;;30.34;41.26074;101693.8;;;;-70
2023/05/22 15:44:05;;;;;;;;;;;;;;;30.15;40.7168;101699.4;;;;-75
2023/05/22 15:49:05;;;;;;;;;;;;;;;29.97;41.30859;101707.9;;;;-68
2023/05/22 15:54:08;;;;;;;;;;;;;;;29.79;41.65527;101715.6;;;;-70
2023/05/22 15:59:05;;;;;;;;;;;;;;;29.68;42.27637;101719.8;;;;-67
2023/05/22 16:04:05;;;;;;;;;;;;;;;29.55;41.99609;101713.5;;;;-67
2023/05/22 16:08:55;;;;;;;0.2;0;;;;;;;;;;;;;-66
2023/05/22 16:09:05;;;;;;;;;;;;;;;29.3;42.03125;101720;;;;-67
2023/05/22 16:14:05;;;;;;;;;;;;;;;29.16;42.94043;101726.6;;;;-68
2023/05/22 16:19:05;;;;;;;;;;;;;;;29.14;42.72754;101722.3;;;;-67
2023/05/22 16:24:05;;;;;;;;;;;;;;;29.07;42.49902;101725.9;;;;-68
2023/05/22 16:29:05;;;;;;;;;;;;;;;28.91;43.20801;101740.2;;;;-68
2023/05/22 16:34:05;;;;;;;;;;;;;;;28.61;42.8291;101737.2;;;;-68
2023/05/22 16:38:58;;;;;;;0.2;0;;;;;;;;;;;;;-68
2023/05/22 16:39:08;;;;;;;;;;;;;;;28.34;43.48047;101733.3;;;;-68
2023/05/22 16:44:05;;;;;;;;;;;;;;;28.12;43.77246;101738.4;;;;-69
2023/05/22 16:49:05;;;;;;;;;;;;;;;27.93;44.13867;101742.3;;;;-69
2023/05/22 16:54:05;;;;;;;;;;;;;;;27.74;44.22363;101739.2;;;;-70
2023/05/22 16:59:05;;;;;;;;;;;;;;;27.53;44.70215;101739.2;;;;-71
2023/05/22 17:04:05;;;;;;;;;;;;;;;27.31;44.87891;101738.9;;;;-69
2023/05/22 17:09:03;;;;;;;0.2;0.1;;;;;;;;;;;;;-71
2023/05/22 17:09:15;;;;;;;;;;;;;;;27.16;45.47949;101742.2;;;;-72
2023/05/22 17:14:05;;;;;;;;;;;;;;;27.01;45.83496;101742.2;;;;-68
2023/05/22 17:19:05;;;;;;;;;;;;;;;26.8;46;101743.3;;;;-69
2023/05/22 17:24:05;;;;;;;;;;;;;;;26.68;46.48535;101746.4;;;;-68
2023/05/22 17:29:05;;;;;;;;;;;;;;;26.51;46.81641;101744.8;;;;-69
2023/05/22 17:34:05;;;;;;;;;;;;;;;26.32;46.87793;101749.1;;;;-74
2023/05/22 17:39:05;;;;;;;;;;;;;;;26.13;47.08887;101756.1;;;;-75
2023/05/22 17:39:15;;;;;;;0.4;0.2;;;;;;;;;;;;;-75
2023/05/22 17:44:06;;;;;;;;;;;;;;;25.87;47.39844;101755.1;;;;-74
2023/05/22 17:49:05;;;;;;;;;;;;;;;25.63;47.71875;101759.8;;;;-75
2023/05/22 17:54:06;;;;;;;;;;;;;;;25.44;48.15039;101766.1;;;;-74
2023/05/22 17:59:05;;;;;;;;;;;;;;;25.2;48.30859;101765.4;;;;-74
2023/05/22 18:04:05;;;;;;;;;;;;;;;24.95;48.65234;101770.6;;;;-74
2023/05/22 18:09:07;;;;;;;;;;;;;;;24.79;49.1416;101767.9;;;;-74
2023/05/22 18:09:16;;;;;;;0.2;0;;;;;;;;;;;;;-74
2023/05/22 18:14:08;;;;;;;;;;;;;;;24.57;49.29102;101764.7;;;;-76
2023/05/22 18:19:08;;;;;;;;;;;;;;;24.37;49.68359;101769.7;;;;-73
2023/05/22 18:24:05;;;;;;;;;;;;;;;24.21;49.88477;101771;;;;-73
2023/05/22 18:29:06;;;;;;;;;;;;;;;24.08;49.7666;101780.8;;;;-75
2023/05/22 18:34:06;;;;;;;;;;;;;;;23.94;49.37109;101782.6;;;;-74
2023/05/22 18:39:06;;;;;;;;;;;;;;;23.75;50.41992;101787.5;;;;-75
2023/05/22 18:39:16;;;;;;;0.2;0.1;;;;;;;;;;;;;-76
2023/05/22 18:44:06;;;;;;;;;;;;;;;23.51;50.45117;101795.6;;;;-74
2023/05/22 18:49:05;;;;;;;;;;;;;;;23.28;50.50684;101795.2;;;;-75
2023/05/22 18:54:08;;;;;;;;;;;;;;;23.03;50.88965;101798.4;;;;-75
2023/05/22 18:59:07;;;;;;;;;;;;;;;22.81;51.1416;101811.3;;;;-75
2023/05/22 19:04:05;;;;;;;;;;;;;;;22.59;51.27637;101816;;;;-74
2023/05/22 19:09:08;;;;;;;;;;;;;;;22.32;50.41992;101826.5;;;;-75
2023/05/22 19:09:25;;;;;;;0.3;0.2;;;;;;;;;;;;;-75
2023/05/22 19:14:05;;;;;;;;;;;;;;;22.05;51.06641;101831.8;;;;-75
2023/05/22 19:19:09;;;;;;;;;;;;;;;21.82;51.38379;101847.1;;;;-68
2023/05/22 19:24:05;;;;;;;;;;;;;;;21.56;52.23438;101862.5;;;;-69
2023/05/22 19:29:09;;;;;;;;;;;;;;;21.34;51.22559;101874.2;;;;-70
2023/05/22 19:34:05;;;;;;;;;;;;;;;21.09;51.91699;101876.4;;;;-69
2023/05/22 19:39:05;;;;;;;;;;;;;;;20.85;52.63086;101883.2;;;;-70
2023/05/22 19:39:23;;;;;;;0.3;0.1;;;;;;;;;;;;;-70
2023/05/22 19:44:05;;;;;;;;;;;;;;;20.6;53.07031;101904.2;;;;-69
2023/05/22 19:49:05;;;;;;;;;;;;;;;20.36;53.78223;101905.7;;;;-68
2023/05/22 19:54:06;;;;;;;;;;;;;;;20.14;52.99219;101923.2;;;;-69
2023/05/22 19:59:05;;;;;;;;;;;;;;;19.92;53.28516;101927.2;;;;-69
2023/05/22 20:04:11;;;;;;;;;;;;;;;19.71;53.33984;101936.3;;;;-71
2023/05/22 20:09:05;;;;;;;;;;;;;;;19.52;53.56738;101950.6;;;;-67
2023/05/22 20:09:27;;;;;;;0.2;0.1;;;;;;;;;;;;;-68
2023/05/22 20:14:06;;;;;;;;;;;;;;;19.36;53.82031;101945;;;;-70
2023/05/22 20:19:05;;;;;;;;;;;;;;;19.17;54.07031;101951.9;;;;-69
2023/05/22 20:24:05;;;;;;;;;;;;;;;19.04;54.02051;101949;;;;-69
2023/05/22 20:29:05;;;;;;;;;;;;;;;18.86;55.04395;101960.4;;;;-68
2023/05/22 20:34:06;;;;;;;;;;;;;;;18.73;54.61914;101965.7;;;;-68
2023/05/22 20:39:05;;;;;;;;;;;;;;;18.58;54.8623;101976.9;;;;-70
2023/05/22 20:39:30;;;;;;;0.2;0.1;;;;;;;;;;;;;-68
2023/05/22 20:44:07;;;;;;;;;;;;;;;18.45;55.04004;101970.3;;;;-69
2023/05/22 20:49:05;;;;;;;;;;;;;;;18.33;56.00098;101983.1;;;;-69
2023/05/22 20:54:05;;;;;;;;;;;;;;;18.22;56.02051;101990.3;;;;-70
2023/05/22 20:59:05;;;;;;;;;;;;;;;18.12;56.25684;102002.6;;;;-69
2023/05/22 21:04:05;;;;;;;;;;;;;;;18.04;56.31445;101994.5;;;;-70
2023/05/22 21:09:05;;;;;;;;;;;;;;;17.98;56.36426;101991.2;;;;-68
2023/05/22 21:09:32;;;;;;;0.2;0.1;;;;;;;;;;;;;-70
2023/05/22 21:14:05;;;;;;;;;;;;;;;17.87;57.04199;102001.7;;;;-68
2023/05/22 21:19:05;;;;;;;;;;;;;;;17.8;57.81543;101998.5;;;;-71
2023/05/22 21:24:05;;;;;;;;;;;;;;;17.74;57.8623;101996.4;;;;-70
2023/05/22 21:29:05;;;;;;;;;;;;;;;17.65;58.06641;101991.9;;;;-71
2023/05/22 21:34:05;;;;;;;;;;;;;;;17.55;58.57422;102006.8;;;;-68
2023/05/22 21:39:05;;;;;;;;;;;;;;;17.47;58.62012;102020.5;;;;-69
2023/05/22 21:39:35;;;;;;;0.2;0;;;;;;;;;;;;;-68
2023/05/22 21:44:06;;;;;;;;;;;;;;;17.4;58.88184;102023.3;;;;-69
2023/05/22 21:49:06;;;;;;;;;;;;;;;17.35;58.64941;102023.8;;;;-70
2023/05/22 21:54:05;;;;;;;;;;;;;;;17.29;59.17285;102023.4;;;;-69
2023/05/22 21:59:05;;;;;;;;;;;;;;;17.22;59.92188;102033.9;;;;-69
2023/05/22 22:04:05;;;;;;;;;;;;;;;17.19;60.22168;102034.7;;;;-69
2023/05/22 22:09:05;;;;;;;;;;;;;;;17.16;60.41016;102038.1;;;;-68
2023/05/22 22:09:37;;;;;;;0.2;0.1;;;;;;;;;;;;;-69
2023/05/22 22:14:06;;;;;;;;;;;;;;;17.09;60.47949;102041.7;;;;-69
2023/05/22 22:19:05;;;;;;;;;;;;;;;17.03;60.23438;102030;;;;-68
2023/05/22 22:24:06;;;;;;;;;;;;;;;16.95;60.88965;102036.6;;;;-68
2023/05/22 22:29:05;;;;;;;;;;;;;;;16.92;60.5459;102032.6;;;;-69
2023/05/22 22:34:05;;;;;;;;;;;;;;;16.88;60.56445;102037.3;;;;-68
2023/05/22 22:39:06;;;;;;;;;;;;;;;16.83;61.16699;102041.5;;;;-68
2023/05/22 22:39:40;;;;;;;0.2;0.1;;;;;;;;;;;;;-69
2023/05/22 22:44:05;;;;;;;;;;;;;;;16.77;61.6543;102038.9;;;;-70
2023/05/22 22:49:05;;;;;;;;;;;;;;;16.73;61.61426;102046;;;;-68
2023/05/22 22:54:05;;;;;;;;;;;;;;;16.7;62.29883;102047.2;;;;-68
2023/05/22 22:59:06;;;;;;;;;;;;;;;16.69;62.12891;102053.1;;;;-70
2023/05/22 23:04:05;;;;;;;;;;;;;;;16.63;61.72559;102053.5;;;;-69
2023/05/22 23:09:05;;;;;;;;;;;;;;;16.6;61.79004;102055.2;;;;-68
2023/05/22 23:09:41;;;;;;;0.2;0.1;;;;;;;;;;;;;-68
2023/05/22 23:14:06;;;;;;;;;;;;;;;16.58;61.91113;102056.9;;;;-69
2023/05/22 23:19:06;;;;;;;;;;;;;;;16.53;61.48633;102060.5;;;;-69
2023/05/22 23:24:09;;;;;;;;;;;;;;;16.49;62.14551;102061;;;;-69
2023/05/22 23:29:07;;;;;;;;;;;;;;;16.4;62.17871;102058.7;;;;-68
2023/05/22 23:34:05;;;;;;;;;;;;;;;16.34;62.33789;102064.1;;;;-69
2023/05/22 23:39:05;;;;;;;;;;;;;;;16.29;63.54883;102063.9;;;;-68
2023/05/22 23:39:43;;;;;;;0.4;0.3;;;;;;;;;;;;;-67
2023/05/22 23:44:05;;;;;;;;;;;;;;;16.22;63.4043;102067.5;;;;-68
2023/05/22 23:49:05;;;;;;;;;;;;;;;16.21;63.66113;102071.2;;;;-70
2023/05/22 23:54:05;;;;;;;;;;;;;;;16.16;63.37305;102075.8;;;;-69
2023/05/22 23:59:05;;;;;;;;;;;;;;;16.1;62.68848;102075.6;;;;-73
